createdAt,value
2022-12-29T00:00:46.844Z,99812.38
2022-12-29T00:05:55.515Z,99808.09
2022-12-29T00:10:59.779Z,99787.44
2022-12-29T00:16:01.208Z,99781.41
2022-12-29T00:21:21.460Z,99784.00
2022-12-29T00:26:41.659Z,99775.34
2022-12-29T00:32:01.761Z,99781.41
2022-12-29T00:37:03.219Z,99758.16
2022-12-29T00:42:41.341Z,99756.41
2022-12-29T00:47:42.910Z,99750.41
2022-12-29T00:52:44.394Z,99756.44
2022-12-29T00:57:45.804Z,99740.06
2022-12-29T01:02:47.320Z,99725.44
2022-12-29T01:07:48.813Z,99716.81
2022-12-29T01:12:51.272Z,99722.84
2022-12-29T01:17:52.905Z,99708.22
2022-12-29T01:22:54.480Z,99701.34
2022-12-29T01:27:55.905Z,99708.22
2022-12-29T01:32:57.328Z,99703.91
2022-12-29T01:37:59.122Z,99692.72
2022-12-29T01:43:00.599Z,99693.59
2022-12-29T01:48:06.247Z,99688.41
2022-12-29T01:53:17.346Z,99691.88
2022-12-29T01:58:23.535Z,99684.13
2022-12-29T02:03:27.772Z,99681.53
2022-12-29T02:08:30.314Z,99684.13
2022-12-29T02:13:31.870Z,99695.31
2022-12-29T02:19:01.123Z,99703.06
2022-12-29T02:24:30.248Z,99695.31
2022-12-29T02:30:03.339Z,99718.50
2022-12-29T02:35:34.463Z,99661.72
2022-12-29T02:40:48.535Z,99658.28
2022-12-29T02:46:10.725Z,99664.34
2022-12-29T02:51:21.176Z,99682.41
2022-12-29T02:56:22.789Z,99675.50
2022-12-29T03:01:37.419Z,99678.94
2022-12-29T03:07:12.213Z,99666.03
2022-12-29T03:12:54.195Z,99643.66
2022-12-29T03:18:02.518Z,99643.66
2022-12-29T03:23:07.804Z,99651.38
2022-12-29T03:28:22.948Z,99647.06
2022-12-29T03:33:27.934Z,99649.66
2022-12-29T03:38:40.927Z,99638.50
2022-12-29T03:43:42.454Z,99629.91
2022-12-29T03:48:43.896Z,99639.34
2022-12-29T03:53:45.326Z,99634.19
2022-12-29T03:58:46.889Z,99644.50
2022-12-29T04:03:48.431Z,99648.81
2022-12-29T04:08:49.861Z,99635.06
2022-12-29T04:13:51.263Z,99640.22
2022-12-29T04:18:52.695Z,99638.50
2022-12-29T04:23:54.107Z,99633.34
2022-12-29T04:28:55.655Z,99643.69
2022-12-29T04:33:58.305Z,99651.41
2022-12-29T04:38:59.804Z,99651.41
2022-12-29T04:44:01.199Z,99673.75
2022-12-29T04:49:08.869Z,99681.50
2022-12-29T04:54:10.432Z,99686.66
2022-12-29T04:59:11.856Z,99706.41
2022-12-29T05:04:13.291Z,99711.56
2022-12-29T05:09:15.675Z,99737.31
2022-12-29T05:14:17.063Z,99719.28
2022-12-29T05:19:22.556Z,99720.16
2022-12-29T05:24:24.133Z,99736.44
2022-12-29T05:29:25.692Z,99743.28
2022-12-29T05:34:27.170Z,99754.34
2022-12-29T05:39:28.538Z,99755.25
2022-12-29T05:44:29.945Z,99752.66
2022-12-29T05:49:31.412Z,99760.31
2022-12-29T05:54:32.835Z,99768.03
2022-12-29T05:59:34.277Z,99758.53
2022-12-29T06:04:35.713Z,99763.72
2022-12-29T06:09:37.129Z,99748.28
2022-12-29T06:14:38.565Z,99756.13
2022-12-29T06:19:40.243Z,99758.78
2022-12-29T06:24:41.664Z,99769.00
2022-12-29T06:29:43.827Z,99775.03
2022-12-29T06:34:45.779Z,99768.91
2022-12-29T06:39:47.274Z,99782.72
2022-12-29T06:44:48.719Z,99781.91
2022-12-29T06:49:50.947Z,99789.59
2022-12-29T06:54:52.549Z,99802.44
2022-12-29T06:59:56.604Z,99799.91
2022-12-29T07:04:58.005Z,99804.16
2022-12-29T07:09:59.392Z,99802.50
2022-12-29T07:15:00.871Z,99806.75
2022-12-29T07:20:02.349Z,99804.16
2022-12-29T07:25:04.329Z,99802.56
2022-12-29T07:30:06.243Z,99811.94
2022-12-29T07:35:08.327Z,99834.38
2022-12-29T07:40:10.844Z,99828.38
2022-12-29T07:45:12.473Z,99836.91
2022-12-29T07:50:14.000Z,99852.34
2022-12-29T07:55:16.754Z,99867.00
2022-12-29T08:00:18.702Z,99875.63
2022-12-29T08:05:20.465Z,99866.19
2022-12-29T08:10:21.862Z,99864.22
2022-12-29T08:15:28.652Z,99878.00
2022-12-29T08:20:36.336Z,99882.34
2022-12-29T08:25:37.789Z,99869.56
2022-12-29T08:30:39.306Z,99879.88
2022-12-29T08:35:40.749Z,99875.59
2022-12-29T08:40:42.919Z,99863.56
2022-12-29T08:45:44.470Z,99878.25
2022-12-29T08:50:47.118Z,99872.25
2022-12-29T08:56:00.808Z,99871.41
2022-12-29T09:01:05.935Z,99857.72
2022-12-29T09:06:08.059Z,99880.00
2022-12-29T09:11:12.325Z,99886.88
2022-12-29T09:16:14.607Z,99881.66
2022-12-29T09:21:16.411Z,99897.97
2022-12-29T09:26:17.870Z,99906.59
2022-12-29T09:31:19.441Z,99914.31
2022-12-29T09:36:24.223Z,99917.00
2022-12-29T09:41:30.994Z,99910.94
2022-12-29T09:46:38.389Z,99934.13
2022-12-29T09:51:44.225Z,99939.13
2022-12-29T09:56:46.988Z,99957.09
2022-12-29T10:02:01.287Z,99971.50
2022-12-29T10:07:30.293Z,99972.25
2022-12-29T10:12:57.940Z,99967.09
2022-12-29T10:18:05.101Z,99975.56
2022-12-29T10:23:30.555Z,99975.44
2022-12-29T10:28:51.858Z,99985.72
2022-12-29T10:33:59.794Z,99981.41
2022-12-29T10:39:25.168Z,99990.91
2022-12-29T10:44:31.970Z,99989.91
2022-12-29T10:49:39.491Z,99994.25
2022-12-29T10:54:56.053Z,100005.41
2022-12-29T10:59:58.786Z,100011.41
2022-12-29T11:05:28.281Z,100033.81
2022-12-29T11:10:44.337Z,100043.31
2022-12-29T11:15:50.833Z,100044.22
2022-12-29T11:21:00.554Z,100052.06
2022-12-29T11:26:11.240Z,100058.91
2022-12-29T11:31:18.415Z,100063.09
2022-12-29T11:36:25.606Z,100074.31
2022-12-29T11:41:32.357Z,100076.03
2022-12-29T11:46:34.629Z,100073.56
2022-12-29T11:51:46.009Z,100076.16
2022-12-29T11:56:49.922Z,100090.91
2022-12-29T12:01:51.732Z,100093.41
2022-12-29T12:07:02.390Z,100076.38
2022-12-29T12:12:10.778Z,100083.34
2022-12-29T12:17:20.151Z,100100.69
2022-12-29T12:22:41.889Z,100103.22
2022-12-29T12:27:47.945Z,100117.81
2022-12-29T12:33:33.635Z,100109.41
2022-12-29T12:38:45.842Z,100119.88
2022-12-29T12:43:52.555Z,100136.38
2022-12-29T12:48:57.222Z,100126.88
2022-12-29T12:54:16.746Z,100141.56
2022-12-29T12:59:53.732Z,100146.53
2022-12-29T13:05:10.124Z,100158.53
2022-12-29T13:10:20.858Z,100151.59
2022-12-29T13:15:48.251Z,100172.16
2022-12-29T13:21:01.481Z,100168.69
2022-12-29T13:26:32.150Z,100166.06
2022-12-29T13:31:48.036Z,100164.28
2022-12-29T13:36:55.481Z,100175.53
2022-12-29T13:41:57.891Z,100174.69
2022-12-29T13:47:06.014Z,100184.13
2022-12-29T13:52:29.841Z,100193.56
2022-12-29T13:58:06.357Z,100189.28
2022-12-29T14:03:44.639Z,100200.44
2022-12-29T14:08:47.613Z,100212.47
2022-12-29T14:13:49.880Z,100216.63
2022-12-29T14:18:51.793Z,100227.72
2022-12-29T14:23:54.909Z,100233.53
2022-12-29T14:29:04.610Z,100234.31
2022-12-29T14:34:07.037Z,100246.16
2022-12-29T14:39:39.556Z,100237.94
2022-12-29T14:44:49.028Z,100235.09
2022-12-29T14:49:50.766Z,100234.13
2022-12-29T14:54:55.196Z,100237.50
2022-12-29T15:00:26.393Z,100240.09
2022-12-29T15:05:34.842Z,100232.47
2022-12-29T15:10:44.818Z,100234.19
2022-12-29T15:15:46.416Z,100232.44
2022-12-29T15:20:52.751Z,100229.00
2022-12-29T15:25:58.655Z,100231.59
2022-12-29T15:31:09.108Z,100228.94
2022-12-29T15:36:14.197Z,100235.03
2022-12-29T15:42:01.229Z,100241.00
2022-12-29T15:47:12.695Z,100247.88
2022-12-29T15:52:19.539Z,100252.97
2022-12-29T15:57:29.222Z,100268.53
2022-12-29T16:02:31.531Z,100265.88
2022-12-29T16:07:41.282Z,100272.03
2022-12-29T16:12:45.448Z,100265.16
2022-12-29T16:17:54.322Z,100291.66
2022-12-29T16:22:58.519Z,100301.91
2022-12-29T16:28:00.957Z,100306.13
2022-12-29T16:33:06.137Z,100300.81
2022-12-29T16:38:13.889Z,100309.25
2022-12-29T16:43:27.574Z,100305.69
2022-12-29T16:48:46.745Z,100314.16
2022-12-29T16:53:52.079Z,100333.00
2022-12-29T16:59:06.945Z,100333.81
2022-12-29T17:04:13.796Z,100332.06
2022-12-29T17:09:21.196Z,100330.28
2022-12-29T17:14:43.271Z,100339.53
2022-12-29T17:19:59.725Z,100360.09
2022-12-29T17:25:03.617Z,100372.91
2022-12-29T17:30:32.875Z,100371.72
2022-12-29T17:35:43.695Z,100376.88
2022-12-29T17:40:45.766Z,100392.63
2022-12-29T17:45:53.010Z,100402.66
2022-12-29T17:50:54.697Z,100408.66
2022-12-29T17:55:57.615Z,100413.75
2022-12-29T18:01:01.631Z,100419.47
2022-12-29T18:06:08.536Z,100435.69
2022-12-29T18:11:22.584Z,100431.13
2022-12-29T18:16:26.600Z,100441.47
2022-12-29T18:21:28.127Z,100444.13
2022-12-29T18:26:31.862Z,100438.03
2022-12-29T18:31:37.226Z,100457.91
2022-12-29T18:36:38.753Z,100457.06
2022-12-29T18:41:40.609Z,100450.88
2022-12-29T18:46:42.121Z,100464.28
2022-12-29T18:51:43.891Z,100470.09
2022-12-29T18:56:45.332Z,100468.91
2022-12-29T19:01:47.064Z,100472.13
2022-12-29T19:06:48.879Z,100476.28
2022-12-29T19:11:51.222Z,100490.88
2022-12-29T19:16:55.498Z,100494.47
2022-12-29T19:21:58.476Z,100492.66
2022-12-29T19:27:00.987Z,100495.97
2022-12-29T19:32:02.437Z,100502.06
2022-12-29T19:37:04.251Z,100504.81
2022-12-29T19:42:05.802Z,100512.44
2022-12-29T19:47:12.321Z,100516.91
2022-12-29T19:52:14.145Z,100518.28
2022-12-29T19:57:15.992Z,100513.78
2022-12-29T20:02:25.839Z,100504.34
2022-12-29T20:07:28.209Z,100513.66
2022-12-29T20:12:34.491Z,100507.56
2022-12-29T20:23:02.139Z,100520.22
2022-12-29T20:28:04.773Z,100524.28
2022-12-29T20:33:09.081Z,100535.34
2022-12-29T20:38:12.977Z,100537.84
2022-12-29T20:43:19.443Z,100543.75
2022-12-29T20:48:20.976Z,100531.09
2022-12-29T20:53:35.933Z,100548.88
2022-12-29T20:59:00.253Z,100561.53
2022-12-29T21:04:01.623Z,100567.31
2022-12-29T21:09:04.033Z,100573.97
2022-12-29T21:14:06.747Z,100577.16
2022-12-29T21:19:08.588Z,100571.13
2022-12-29T21:24:10.447Z,100583.66
2022-12-29T21:29:11.936Z,100589.47
2022-12-29T21:34:13.652Z,100589.63
2022-12-29T21:39:16.452Z,100602.28
2022-12-29T21:44:36.654Z,100608.19
2022-12-29T21:49:38.305Z,100622.59
2022-12-29T21:54:58.385Z,100636.22
2022-12-29T22:00:18.207Z,100631.38
2022-12-29T22:05:38.758Z,100632.13
2022-12-29T22:11:00.613Z,100646.72
2022-12-29T22:16:06.636Z,100647.44
2022-12-29T22:21:10.350Z,100650.72
2022-12-29T22:26:14.377Z,100652.34
2022-12-29T22:31:29.101Z,100654.84
2022-12-29T22:36:32.287Z,100671.13
2022-12-29T22:41:35.310Z,100674.22
2022-12-29T22:46:36.862Z,100683.03
2022-12-29T22:51:41.275Z,100679.78
2022-12-29T22:56:42.715Z,100688.41
2022-12-29T23:01:44.724Z,100692.91
2022-12-29T23:06:47.417Z,100700.00
2022-12-29T23:11:49.767Z,100714.59
2022-12-29T23:16:51.441Z,100731.19
2022-12-29T23:21:52.979Z,100742.38
2022-12-29T23:26:55.921Z,100740.53
2022-12-29T23:31:57.496Z,100745.69
2022-12-29T23:36:58.987Z,100758.44
2022-12-29T23:42:00.477Z,100752.59
2022-12-29T23:47:02.291Z,100742.53
2022-12-29T23:52:04.916Z,100750.88
2022-12-29T23:57:06.418Z,100753.91
